sensor_id;sensor_type;location;lat;lon;timestamp;pressure;altitude;pressure_sealevel;temperature;humidity
76114;BME280;64845;53.086;5.834;2023-04-22T00:01:21;100975.53;;;10.49;74.89
76114;BME280;64845;53.086;5.834;2023-04-22T00:03:49;100969.41;;;10.46;75.54
76114;BME280;64845;53.086;5.834;2023-04-22T00:06:14;100960.75;;;10.39;75.26
76114;BME280;64845;53.086;5.834;2023-04-22T00:08:40;100965.22;;;10.38;75.53
76114;BME280;64845;53.086;5.834;2023-04-22T00:11:05;100961.63;;;10.38;74.98
76114;BME280;64845;53.086;5.834;2023-04-22T00:13:31;100961.72;;;10.36;75.40
76114;BME280;64845;53.086;5.834;2023-04-22T00:15:56;100963.44;;;10.37;75.39
76114;BME280;64845;53.086;5.834;2023-04-22T00:18:22;100956.38;;;10.36;75.70
76114;BME280;64845;53.086;5.834;2023-04-22T00:20:47;100948.41;;;10.35;75.25
76114;BME280;64845;53.086;5.834;2023-04-22T00:23:13;100943.16;;;10.32;75.37
76114;BME280;64845;53.086;5.834;2023-04-22T00:25:39;100937.97;;;10.28;75.68
76114;BME280;64845;53.086;5.834;2023-04-22T00:28:05;100938.19;;;10.22;75.69
76114;BME280;64845;53.086;5.834;2023-04-22T00:30:30;100934.75;;;10.19;75.81
76114;BME280;64845;53.086;5.834;2023-04-22T00:32:56;100930.44;;;10.15;75.45
76114;BME280;64845;53.086;5.834;2023-04-22T00:35:21;100935.00;;;10.11;75.72
76114;BME280;64845;53.086;5.834;2023-04-22T00:37:47;100938.66;;;10.08;75.64
76114;BME280;64845;53.086;5.834;2023-04-22T00:40:12;100952.06;;;10.07;75.54
76114;BME280;64845;53.086;5.834;2023-04-22T00:42:38;100945.03;;;10.04;75.61
76114;BME280;64845;53.086;5.834;2023-04-22T00:45:04;100948.69;;;10.02;75.60
76114;BME280;64845;53.086;5.834;2023-04-22T00:47:34;100936.47;;;9.94;75.50
76114;BME280;64845;53.086;5.834;2023-04-22T00:49:59;100929.47;;;9.92;75.93
76114;BME280;64845;53.086;5.834;2023-04-22T00:52:25;100925.97;;;9.90;75.84
76114;BME280;64845;53.086;5.834;2023-04-22T00:54:50;100927.81;;;9.88;75.68
76114;BME280;64845;53.086;5.834;2023-04-22T00:57:17;100927.88;;;9.86;75.58
76114;BME280;64845;53.086;5.834;2023-04-22T00:59:43;100933.22;;;9.86;75.78
76114;BME280;64845;53.086;5.834;2023-04-22T01:02:09;100932.41;;;9.84;75.89
76114;BME280;64845;53.086;5.834;2023-04-22T01:04:35;100935.09;;;9.82;75.87
76114;BME280;64845;53.086;5.834;2023-04-22T01:07:00;100937.00;;;9.79;76.10
76114;BME280;64845;53.086;5.834;2023-04-22T01:09:26;100930.84;;;9.77;75.77
76114;BME280;64845;53.086;5.834;2023-04-22T01:11:51;100931.84;;;9.74;75.69
76114;BME280;64845;53.086;5.834;2023-04-22T01:14:17;100934.53;;;9.73;75.89
76114;BME280;64845;53.086;5.834;2023-04-22T01:16:43;100939.09;;;9.71;76.07
76114;BME280;64845;53.086;5.834;2023-04-22T01:19:10;100940.03;;;9.68;75.62
76114;BME280;64845;53.086;5.834;2023-04-22T01:21:37;100931.28;;;9.64;76.24
76114;BME280;64845;53.086;5.834;2023-04-22T01:24:03;100925.19;;;9.61;75.98
76114;BME280;64845;53.086;5.834;2023-04-22T01:26:29;100921.69;;;9.59;76.07
76114;BME280;64845;53.086;5.834;2023-04-22T01:28:54;100917.28;;;9.58;76.09
76114;BME280;64845;53.086;5.834;2023-04-22T01:31:20;100918.25;;;9.55;76.01
76114;BME280;64845;53.086;5.834;2023-04-22T01:33:45;100928.97;;;9.53;75.80
76114;BME280;64845;53.086;5.834;2023-04-22T01:36:12;100920.16;;;9.51;76.01
76114;BME280;64845;53.086;5.834;2023-04-22T01:38:38;100923.81;;;9.49;76.01
76114;BME280;64845;53.086;5.834;2023-04-22T01:41:04;100906.97;;;9.47;76.29
76114;BME280;64845;53.086;5.834;2023-04-22T01:43:29;100917.75;;;9.44;75.87
76114;BME280;64845;53.086;5.834;2023-04-22T01:45:56;100915.22;;;9.39;76.01
76114;BME280;64845;53.086;5.834;2023-04-22T01:48:21;100924.28;;;9.33;76.31
76114;BME280;64845;53.086;5.834;2023-04-22T01:50:47;100927.06;;;9.30;76.07
76114;BME280;64845;53.086;5.834;2023-04-22T01:53:12;100923.66;;;9.25;76.33
76114;BME280;64845;53.086;5.834;2023-04-22T01:55:38;100921.94;;;9.24;75.88
76114;BME280;64845;53.086;5.834;2023-04-22T01:58:04;100926.50;;;9.20;76.32
76114;BME280;64845;53.086;5.834;2023-04-22T02:00:30;100917.69;;;9.18;75.96
76114;BME280;64845;53.086;5.834;2023-04-22T02:02:55;100923.03;;;9.17;76.20
76114;BME280;64845;53.086;5.834;2023-04-22T02:05:21;100919.59;;;9.13;76.23
76114;BME280;64845;53.086;5.834;2023-04-22T02:07:50;100917.94;;;9.09;76.16
76114;BME280;64845;53.086;5.834;2023-04-22T02:10:16;100915.44;;;9.04;76.34
76114;BME280;64845;53.086;5.834;2023-04-22T02:12:41;100921.78;;;9.00;76.28
76114;BME280;64845;53.086;5.834;2023-04-22T02:15:07;100917.38;;;8.99;76.14
76114;BME280;64845;53.086;5.834;2023-04-22T02:17:32;100915.72;;;8.95;76.03
76114;BME280;64845;53.086;5.834;2023-04-22T02:19:58;100907.78;;;8.94;76.22
76114;BME280;64845;53.086;5.834;2023-04-22T02:22:23;100910.53;;;8.90;76.53
76114;BME280;64845;53.086;5.834;2023-04-22T02:24:49;100914.09;;;8.91;76.22
76114;BME280;64845;53.086;5.834;2023-04-22T02:27:15;100916.78;;;8.89;76.23
76114;BME280;64845;53.086;5.834;2023-04-22T02:29:40;100909.78;;;8.87;76.14
76114;BME280;64845;53.086;5.834;2023-04-22T02:32:05;100910.72;;;8.84;76.51
76114;BME280;64845;53.086;5.834;2023-04-22T02:34:31;100915.25;;;8.82;76.27
76114;BME280;64845;53.086;5.834;2023-04-22T02:36:56;100919.69;;;8.82;76.39
76114;BME280;64845;53.086;5.834;2023-04-22T02:39:22;100910.00;;;8.79;76.50
76114;BME280;64845;53.086;5.834;2023-04-22T02:41:47;100903.84;;;8.77;76.50
76114;BME280;64845;53.086;5.834;2023-04-22T02:44:12;100896.81;;;8.74;76.55
76114;BME280;64845;53.086;5.834;2023-04-22T02:46:38;100896.00;;;8.72;76.50
76114;BME280;64845;53.086;5.834;2023-04-22T02:49:03;100895.22;;;8.69;76.34
76114;BME280;64845;53.086;5.834;2023-04-22T02:51:29;100893.53;;;8.66;76.48
76114;BME280;64845;53.086;5.834;2023-04-22T02:53:55;100890.94;;;8.63;76.55
76114;BME280;64845;53.086;5.834;2023-04-22T02:56:20;100887.53;;;8.58;76.74
76114;BME280;64845;53.086;5.834;2023-04-22T02:58:46;100889.38;;;8.56;76.71
76114;BME280;64845;53.086;5.834;2023-04-22T03:01:11;100877.00;;;8.55;76.75
76114;BME280;64845;53.086;5.834;2023-04-22T03:03:36;100878.84;;;8.53;76.40
76114;BME280;64845;53.086;5.834;2023-04-22T03:06:02;100875.31;;;8.52;76.76
76114;BME280;64845;53.086;5.834;2023-04-22T03:08:27;100876.22;;;8.51;76.58
76114;BME280;64845;53.086;5.834;2023-04-22T03:10:52;100883.34;;;8.51;76.46
76114;BME280;64845;53.086;5.834;2023-04-22T03:13:18;100881.63;;;8.48;76.84
76114;BME280;64845;53.086;5.834;2023-04-22T03:15:43;100878.97;;;8.48;76.81
76114;BME280;64845;53.086;5.834;2023-04-22T03:18:09;100878.16;;;8.44;76.64
76114;BME280;64845;53.086;5.834;2023-04-22T03:20:34;100881.75;;;8.43;76.69
76114;BME280;64845;53.086;5.834;2023-04-22T03:23:00;100878.25;;;8.41;76.70
76114;BME280;64845;53.086;5.834;2023-04-22T03:25:26;100881.00;;;8.38;76.99
76114;BME280;64845;53.086;5.834;2023-04-22T03:27:51;100874.06;;;8.32;76.68
76114;BME280;64845;53.086;5.834;2023-04-22T03:30:17;100877.09;;;8.20;76.66
76114;BME280;64845;53.086;5.834;2023-04-22T03:32:42;100876.44;;;8.12;76.92
76114;BME280;64845;53.086;5.834;2023-04-22T03:35:08;100868.66;;;8.04;76.88
76114;BME280;64845;53.086;5.834;2023-04-22T03:37:33;100867.00;;;8.00;76.82
76114;BME280;64845;53.086;5.834;2023-04-22T03:39:58;100851.13;;;7.97;76.95
76114;BME280;64845;53.086;5.834;2023-04-22T03:42:24;100848.75;;;7.86;77.01
76114;BME280;64845;53.086;5.834;2023-04-22T03:44:49;100853.38;;;7.79;76.67
76114;BME280;64845;53.086;5.834;2023-04-22T03:47:15;100851.63;;;7.78;77.13
76114;BME280;64845;53.086;5.834;2023-04-22T03:49:40;100851.69;;;7.77;76.98
76114;BME280;64845;53.086;5.834;2023-04-22T03:52:05;100841.06;;;7.75;77.05
76114;BME280;64845;53.086;5.834;2023-04-22T03:54:31;100837.56;;;7.75;76.86
76114;BME280;64845;53.086;5.834;2023-04-22T03:56:56;100840.28;;;7.73;76.92
76114;BME280;64845;53.086;5.834;2023-04-22T03:59:22;100833.28;;;7.69;76.84
76114;BME280;64845;53.086;5.834;2023-04-22T04:01:50;100837.78;;;7.67;76.98
76114;BME280;64845;53.086;5.834;2023-04-22T04:04:15;100821.97;;;7.62;76.92
76114;BME280;64845;53.086;5.834;2023-04-22T04:06:41;100815.81;;;7.60;76.90
76114;BME280;64845;53.086;5.834;2023-04-22T04:09:06;100820.25;;;7.60;76.85
76114;BME280;64845;53.086;5.834;2023-04-22T04:11:31;100818.50;;;7.59;76.98
76114;BME280;64845;53.086;5.834;2023-04-22T04:13:57;100818.56;;;7.57;76.90
76114;BME280;64845;53.086;5.834;2023-04-22T04:16:22;100825.59;;;7.58;77.10
76114;BME280;64845;53.086;5.834;2023-04-22T04:18:51;100810.56;;;7.57;77.20
76114;BME280;64845;53.086;5.834;2023-04-22T04:21:16;100812.34;;;7.56;77.24
76114;BME280;64845;53.086;5.834;2023-04-22T04:23:42;100812.47;;;7.53;77.24
76114;BME280;64845;53.086;5.834;2023-04-22T04:26:07;100817.84;;;7.50;77.09
76114;BME280;64845;53.086;5.834;2023-04-22T04:28:32;100819.69;;;7.47;77.37
76114;BME280;64845;53.086;5.834;2023-04-22T04:30:59;100829.47;;;7.46;77.10
76114;BME280;64845;53.086;5.834;2023-04-22T04:33:30;100828.69;;;7.43;77.37
76114;BME280;64845;53.086;5.834;2023-04-22T04:35:58;100826.13;;;7.38;77.40
76114;BME280;64845;53.086;5.834;2023-04-22T04:38:25;100831.69;;;7.27;77.01
76114;BME280;64845;53.086;5.834;2023-04-22T04:40:51;100827.41;;;7.23;76.94
76114;BME280;64845;53.086;5.834;2023-04-22T04:43:16;100817.69;;;7.22;77.30
76114;BME280;64845;53.086;5.834;2023-04-22T04:45:42;100827.47;;;7.20;77.15
76114;BME280;64845;53.086;5.834;2023-04-22T04:48:12;100824.00;;;7.16;77.25
76114;BME280;64845;53.086;5.834;2023-04-22T04:50:39;100820.56;;;7.13;77.24
76114;BME280;64845;53.086;5.834;2023-04-22T04:53:06;100824.19;;;7.10;77.19
76114;BME280;64845;53.086;5.834;2023-04-22T04:55:31;100816.22;;;7.10;77.25
76114;BME280;64845;53.086;5.834;2023-04-22T04:57:57;100815.31;;;7.09;77.08
76114;BME280;64845;53.086;5.834;2023-04-22T05:00:22;100817.97;;;7.09;77.51
76114;BME280;64845;53.086;5.834;2023-04-22T05:02:47;100819.78;;;7.09;77.33
76114;BME280;64845;53.086;5.834;2023-04-22T05:05:13;100825.09;;;7.09;77.39
76114;BME280;64845;53.086;5.834;2023-04-22T05:07:38;100819.78;;;7.09;77.27
76114;BME280;64845;53.086;5.834;2023-04-22T05:10:04;100820.63;;;7.09;77.51
76114;BME280;64845;53.086;5.834;2023-04-22T05:12:29;100822.38;;;7.10;77.38
76114;BME280;64845;53.086;5.834;2023-04-22T05:14:55;100823.28;;;7.11;77.42
76114;BME280;64845;53.086;5.834;2023-04-22T05:17:42;100822.44;;;7.09;77.62
76114;BME280;64845;53.086;5.834;2023-04-22T05:20:10;100827.88;;;7.04;77.55
76114;BME280;64845;53.086;5.834;2023-04-22T05:22:36;100826.19;;;7.00;77.45
76114;BME280;64845;53.086;5.834;2023-04-22T05:25:02;100823.53;;;7.00;77.40
76114;BME280;64845;53.086;5.834;2023-04-22T05:27:28;100818.16;;;7.03;77.42
76114;BME280;64845;53.086;5.834;2023-04-22T05:29:54;100823.41;;;7.05;77.60
76114;BME280;64845;53.086;5.834;2023-04-22T05:32:20;100822.50;;;7.06;77.60
76114;BME280;64845;53.086;5.834;2023-04-22T05:34:45;100820.63;;;7.09;77.47
76114;BME280;64845;53.086;5.834;2023-04-22T05:37:11;100828.53;;;7.13;77.62
76114;BME280;64845;53.086;5.834;2023-04-22T05:39:36;100827.63;;;7.14;77.64
76114;BME280;64845;53.086;5.834;2023-04-22T05:42:02;100830.25;;;7.15;77.78
76114;BME280;64845;53.086;5.834;2023-04-22T05:44:27;100830.16;;;7.18;77.64
76114;BME280;64845;53.086;5.834;2023-04-22T05:46:52;100831.91;;;7.19;77.91
76114;BME280;64845;53.086;5.834;2023-04-22T05:49:18;100834.56;;;7.19;77.87
76114;BME280;64845;53.086;5.834;2023-04-22T05:51:44;100832.75;;;7.21;77.87
76114;BME280;64845;53.086;5.834;2023-04-22T05:54:10;100832.66;;;7.24;77.87
76114;BME280;64845;53.086;5.834;2023-04-22T05:56:35;100836.94;;;7.30;77.89
76114;BME280;64845;53.086;5.834;2023-04-22T05:59:01;100837.75;;;7.34;78.13
76114;BME280;64845;53.086;5.834;2023-04-22T06:01:26;100834.09;;;7.38;77.92
76114;BME280;64845;53.086;5.834;2023-04-22T06:03:51;100840.22;;;7.41;78.32
76114;BME280;64845;53.086;5.834;2023-04-22T06:06:17;100840.09;;;7.46;78.07
76114;BME280;64845;53.086;5.834;2023-04-22T06:08:42;100841.75;;;7.50;78.22
76114;BME280;64845;53.086;5.834;2023-04-22T06:11:09;100839.81;;;7.55;78.01
76114;BME280;64845;53.086;5.834;2023-04-22T06:13:34;100840.59;;;7.61;78.17
76114;BME280;64845;53.086;5.834;2023-04-22T06:16:00;100844.00;;;7.66;78.20
76114;BME280;64845;53.086;5.834;2023-04-22T06:18:25;100839.44;;;7.71;78.55
76114;BME280;64845;53.086;5.834;2023-04-22T06:20:51;100834.06;;;7.74;78.45
76114;BME280;64845;53.086;5.834;2023-04-22T06:23:16;100840.16;;;7.78;78.42
76114;BME280;64845;53.086;5.834;2023-04-22T06:25:42;100831.19;;;7.80;78.28
76114;BME280;64845;53.086;5.834;2023-04-22T06:28:07;100833.78;;;7.83;78.30
76114;BME280;64845;53.086;5.834;2023-04-22T06:30:33;100834.63;;;7.85;78.50
76114;BME280;64845;53.086;5.834;2023-04-22T06:32:58;100839.78;;;7.90;78.41
76114;BME280;64845;53.086;5.834;2023-04-22T06:35:23;100837.13;;;7.92;78.34
76114;BME280;64845;53.086;5.834;2023-04-22T06:37:50;100839.66;;;7.95;78.54
76114;BME280;64845;53.086;5.834;2023-04-22T06:40:15;100843.13;;;7.98;78.43
76114;BME280;64845;53.086;5.834;2023-04-22T06:42:40;100838.63;;;8.00;78.71
76114;BME280;64845;53.086;5.834;2023-04-22T06:45:06;100839.41;;;8.04;78.68
76114;BME280;64845;53.086;5.834;2023-04-22T06:47:38;100834.88;;;8.08;78.84
76114;BME280;64845;53.086;5.834;2023-04-22T06:50:05;100835.63;;;8.13;79.01
76114;BME280;64845;53.086;5.834;2023-04-22T06:52:31;100829.25;;;8.19;79.04
76114;BME280;64845;53.086;5.834;2023-04-22T06:54:56;100823.75;;;8.25;78.99
76114;BME280;64845;53.086;5.834;2023-04-22T06:57:22;100823.56;;;8.31;78.85
76114;BME280;64845;53.086;5.834;2023-04-22T06:59:47;100815.38;;;8.39;78.90
76114;BME280;64845;53.086;5.834;2023-04-22T07:02:12;100809.84;;;8.45;78.88
76114;BME280;64845;53.086;5.834;2023-04-22T07:04:38;100804.28;;;8.54;78.97
76114;BME280;64845;53.086;5.834;2023-04-22T07:07:03;100800.50;;;8.61;79.12
76114;BME280;64845;53.086;5.834;2023-04-22T07:09:29;100799.34;;;8.70;79.27
76114;BME280;64845;53.086;5.834;2023-04-22T07:11:54;100790.22;;;8.77;79.42
76114;BME280;64845;53.086;5.834;2023-04-22T07:14:23;100791.81;;;8.83;79.60
76114;BME280;64845;53.086;5.834;2023-04-22T07:16:49;100795.16;;;8.90;79.56
76114;BME280;64845;53.086;5.834;2023-04-22T07:19:14;100795.94;;;8.94;79.10
76114;BME280;64845;53.086;5.834;2023-04-22T07:21:39;100794.84;;;8.99;79.35
76114;BME280;64845;53.086;5.834;2023-04-22T07:24:05;100802.66;;;9.05;79.52
76114;BME280;64845;53.086;5.834;2023-04-22T07:26:30;100795.31;;;9.12;79.62
76114;BME280;64845;53.086;5.834;2023-04-22T07:28:58;100786.25;;;9.18;79.59
76114;BME280;64845;53.086;5.834;2023-04-22T07:31:23;100779.81;;;9.23;79.34
76114;BME280;64845;53.086;5.834;2023-04-22T07:33:49;100774.28;;;9.30;79.44
76114;BME280;64845;53.086;5.834;2023-04-22T07:36:14;100774.09;;;9.36;79.64
76114;BME280;64845;53.086;5.834;2023-04-22T07:38:39;100771.19;;;9.42;79.51
76114;BME280;64845;53.086;5.834;2023-04-22T07:41:05;100775.34;;;9.51;79.44
76114;BME280;64845;53.086;5.834;2023-04-22T07:43:30;100772.41;;;9.59;79.30
76114;BME280;64845;53.086;5.834;2023-04-22T07:45:56;100780.13;;;9.66;79.57
76114;BME280;64845;53.086;5.834;2023-04-22T07:48:21;100770.09;;;9.73;79.20
76114;BME280;64845;53.086;5.834;2023-04-22T07:50:47;100770.69;;;9.81;79.55
76114;BME280;64845;53.086;5.834;2023-04-22T07:53:12;100773.09;;;9.89;79.86
76114;BME280;64845;53.086;5.834;2023-04-22T07:55:39;100765.66;;;9.97;79.69
76114;BME280;64845;53.086;5.834;2023-04-22T07:58:05;100768.91;;;10.06;79.48
76114;BME280;64845;53.086;5.834;2023-04-22T08:00:32;100777.47;;;10.14;79.85
76114;BME280;64845;53.086;5.834;2023-04-22T08:02:58;100766.47;;;10.23;79.54
76114;BME280;64845;53.086;5.834;2023-04-22T08:05:23;100759.00;;;10.32;79.53
76114;BME280;64845;53.086;5.834;2023-04-22T08:07:48;100754.28;;;10.40;79.49
76114;BME280;64845;53.086;5.834;2023-04-22T08:10:14;100751.31;;;10.48;79.75
76114;BME280;64845;53.086;5.834;2023-04-22T08:12:39;100738.53;;;10.56;79.38
76114;BME280;64845;53.086;5.834;2023-04-22T08:15:05;100738.13;;;10.65;79.49
76114;BME280;64845;53.086;5.834;2023-04-22T08:17:31;100740.50;;;10.73;79.63
76114;BME280;64845;53.086;5.834;2023-04-22T08:19:56;100737.44;;;10.82;79.40
76114;BME280;64845;53.086;5.834;2023-04-22T08:22:21;100750.41;;;10.92;79.42
76114;BME280;64845;53.086;5.834;2023-04-22T08:24:48;100747.38;;;11.01;79.43
76114;BME280;64845;53.086;5.834;2023-04-22T08:27:13;100751.50;;;11.08;79.49
76114;BME280;64845;53.086;5.834;2023-04-22T08:29:39;100752.03;;;11.16;79.55
76114;BME280;64845;53.086;5.834;2023-04-22T08:32:04;100762.47;;;11.23;79.31
76114;BME280;64845;53.086;5.834;2023-04-22T08:34:30;100762.16;;;11.30;79.28
76114;BME280;64845;53.086;5.834;2023-04-22T08:36:55;100760.06;;;11.37;79.34
76114;BME280;64845;53.086;5.834;2023-04-22T08:39:21;100754.53;;;11.42;79.24
76114;BME280;64845;53.086;5.834;2023-04-22T08:41:47;100767.53;;;11.49;78.94
76114;BME280;64845;53.086;5.834;2023-04-22T08:44:13;100773.34;;;11.59;79.33
76114;BME280;64845;53.086;5.834;2023-04-22T08:46:39;100772.81;;;11.72;78.98
76114;BME280;64845;53.086;5.834;2023-04-22T08:49:05;100765.25;;;11.82;79.17
76114;BME280;64845;53.086;5.834;2023-04-22T08:51:31;100760.50;;;11.88;78.94
76114;BME280;64845;53.086;5.834;2023-04-22T08:53:59;100767.31;;;11.96;78.98
76114;BME280;64845;53.086;5.834;2023-04-22T08:56:25;100777.69;;;12.03;78.79
76114;BME280;64845;53.086;5.834;2023-04-22T08:58:51;100772.78;;;12.13;78.70
76114;BME280;64845;53.086;5.834;2023-04-22T09:01:20;100769.75;;;12.21;78.56
76114;BME280;64845;53.086;5.834;2023-04-22T09:03:47;100756.03;;;12.27;78.44
76114;BME280;64845;53.086;5.834;2023-04-22T09:06:13;100754.69;;;12.37;78.45
76114;BME280;64845;53.086;5.834;2023-04-22T09:08:41;100756.13;;;12.45;78.29
76114;BME280;64845;53.086;5.834;2023-04-22T09:11:07;100756.75;;;12.50;77.97
76114;BME280;64845;53.086;5.834;2023-04-22T09:13:33;100750.16;;;12.57;77.94
76114;BME280;64845;53.086;5.834;2023-04-22T09:15:59;100763.09;;;12.66;77.73
76114;BME280;64845;53.086;5.834;2023-04-22T09:18:25;100762.81;;;12.73;77.75
76114;BME280;64845;53.086;5.834;2023-04-22T09:20:54;100758.91;;;12.80;77.71
76114;BME280;64845;53.086;5.834;2023-04-22T09:23:21;100752.19;;;12.89;77.65
76114;BME280;64845;53.086;5.834;2023-04-22T09:25:46;100748.19;;;12.97;77.49
76114;BME280;64845;53.086;5.834;2023-04-22T09:28:16;100740.56;;;13.07;77.38
76114;BME280;64845;53.086;5.834;2023-04-22T09:30:42;100742.84;;;13.15;77.26
76114;BME280;64845;53.086;5.834;2023-04-22T09:33:08;100738.00;;;13.22;77.05
76114;BME280;64845;53.086;5.834;2023-04-22T09:35:38;100732.19;;;13.31;77.14
76114;BME280;64845;53.086;5.834;2023-04-22T09:38:05;100725.63;;;13.37;77.04
76114;BME280;64845;53.086;5.834;2023-04-22T09:40:32;100717.13;;;13.46;76.83
76114;BME280;64845;53.086;5.834;2023-04-22T09:43:06;100711.28;;;13.55;76.73
76114;BME280;64845;53.086;5.834;2023-04-22T09:45:33;100709.28;;;13.59;76.57
76114;BME280;64845;53.086;5.834;2023-04-22T09:48:10;100719.59;;;13.67;76.47
76114;BME280;64845;53.086;5.834;2023-04-22T09:50:42;100722.06;;;13.71;76.22
76114;BME280;64845;53.086;5.834;2023-04-22T09:53:10;100722.59;;;13.78;76.09
76114;BME280;64845;53.086;5.834;2023-04-22T09:55:41;100730.28;;;13.84;75.95
76114;BME280;64845;53.086;5.834;2023-04-22T09:58:12;100724.44;;;13.94;75.59
76114;BME280;64845;53.086;5.834;2023-04-22T10:00:45;100723.03;;;14.02;75.85
76114;BME280;64845;53.086;5.834;2023-04-22T10:03:12;100723.66;;;14.08;75.46
76114;BME280;64845;53.086;5.834;2023-04-22T10:05:38;100724.19;;;14.14;75.22
76114;BME280;64845;53.086;5.834;2023-04-22T10:08:04;100721.84;;;14.24;75.19
76114;BME280;64845;53.086;5.834;2023-04-22T10:10:31;100724.00;;;14.33;75.17
76114;BME280;64845;53.086;5.834;2023-04-22T10:12:57;100721.94;;;14.39;74.88
76114;BME280;64845;53.086;5.834;2023-04-22T10:15:23;100727.97;;;14.42;74.60
76114;BME280;64845;53.086;5.834;2023-04-22T10:17:51;100714.13;;;14.50;74.52
76114;BME280;64845;53.086;5.834;2023-04-22T10:20:19;100722.34;;;14.63;74.45
76114;BME280;64845;53.086;5.834;2023-04-22T10:22:45;100718.19;;;14.73;74.37
76114;BME280;64845;53.086;5.834;2023-04-22T10:25:12;100715.84;;;14.83;74.38
76114;BME280;64845;53.086;5.834;2023-04-22T10:28:01;100708.44;;;14.87;73.83
76114;BME280;64845;53.086;5.834;2023-04-22T10:30:29;100712.03;;;14.87;73.52
76114;BME280;64845;53.086;5.834;2023-04-22T10:32:54;100702.53;;;14.96;73.49
76114;BME280;64845;53.086;5.834;2023-04-22T10:35:26;100703.72;;;15.06;73.34
76114;BME280;64845;53.086;5.834;2023-04-22T10:37:53;100700.56;;;15.14;73.49
76114;BME280;64845;53.086;5.834;2023-04-22T10:40:19;100693.19;;;15.18;73.36
76114;BME280;64845;53.086;5.834;2023-04-22T10:42:50;100679.16;;;15.27;73.24
76114;BME280;64845;53.086;5.834;2023-04-22T10:45:16;100683.88;;;15.38;73.10
76114;BME280;64845;53.086;5.834;2023-04-22T10:47:42;100689.75;;;15.45;72.86
76114;BME280;64845;53.086;5.834;2023-04-22T10:52:33;100680.63;;;15.62;72.38
76114;BME280;64845;53.086;5.834;2023-04-22T10:54:59;100672.91;;;15.70;72.35
76114;BME280;64845;53.086;5.834;2023-04-22T10:57:30;100678.22;;;15.86;72.17
76114;BME280;64845;53.086;5.834;2023-04-22T11:00:37;100673.78;;;15.99;71.97
76114;BME280;64845;53.086;5.834;2023-04-22T11:05:29;100671.06;;;16.14;71.45
76114;BME280;64845;53.086;5.834;2023-04-22T11:08:01;100668.84;;;16.21;71.20
76114;BME280;64845;53.086;5.834;2023-04-22T11:10:32;100654.75;;;16.30;71.06
76114;BME280;64845;53.086;5.834;2023-04-22T11:13:00;100653.25;;;16.39;70.94
76114;BME280;64845;53.086;5.834;2023-04-22T11:15:28;100649.78;;;16.51;70.74
76114;BME280;64845;53.086;5.834;2023-04-22T11:17:54;100645.28;;;16.65;70.07
76114;BME280;64845;53.086;5.834;2023-04-22T11:20:20;100640.13;;;16.74;70.06
76114;BME280;64845;53.086;5.834;2023-04-22T11:22:50;100644.44;;;16.77;69.80
76114;BME280;64845;53.086;5.834;2023-04-22T11:25:16;100638.06;;;16.78;69.27
76114;BME280;64845;53.086;5.834;2023-04-22T11:27:42;100638.94;;;16.79;69.04
76114;BME280;64845;53.086;5.834;2023-04-22T11:30:11;100642.19;;;16.84;69.22
76114;BME280;64845;53.086;5.834;2023-04-22T11:32:43;100648.22;;;16.87;68.84
76114;BME280;64845;53.086;5.834;2023-04-22T11:35:11;100654.44;;;17.02;69.05
76114;BME280;64845;53.086;5.834;2023-04-22T11:40:16;100659.00;;;17.28;68.63
76114;BME280;64845;53.086;5.834;2023-04-22T11:42:42;100659.28;;;17.36;68.11
76114;BME280;64845;53.086;5.834;2023-04-22T11:45:08;100659.00;;;17.41;68.13
76114;BME280;64845;53.086;5.834;2023-04-22T11:47:34;100663.84;;;17.48;67.91
76114;BME280;64845;53.086;5.834;2023-04-22T11:50:02;100659.72;;;17.56;67.65
76114;BME280;64845;53.086;5.834;2023-04-22T11:55:20;100656.03;;;17.70;67.10
76114;BME280;64845;53.086;5.834;2023-04-22T11:57:55;100650.31;;;17.74;66.85
76114;BME280;64845;53.086;5.834;2023-04-22T12:00:22;100647.84;;;17.71;66.08
76114;BME280;64845;53.086;5.834;2023-04-22T12:02:55;100646.19;;;17.68;66.17
76114;BME280;64845;53.086;5.834;2023-04-22T12:05:31;100638.09;;;17.68;65.85
76114;BME280;64845;53.086;5.834;2023-04-22T12:07:56;100630.13;;;17.67;65.98
76114;BME280;64845;53.086;5.834;2023-04-22T12:10:22;100630.66;;;17.72;65.81
76114;BME280;64845;53.086;5.834;2023-04-22T12:12:47;100631.63;;;17.71;65.42
76114;BME280;64845;53.086;5.834;2023-04-22T12:15:13;100635.09;;;17.60;65.10
76114;BME280;64845;53.086;5.834;2023-04-22T12:17:39;100635.19;;;17.59;64.97
76114;BME280;64845;53.086;5.834;2023-04-22T12:20:05;100628.41;;;17.53;64.90
76114;BME280;64845;53.086;5.834;2023-04-22T12:22:32;100627.31;;;17.56;64.98
76114;BME280;64845;53.086;5.834;2023-04-22T12:24:58;100623.97;;;17.52;64.74
76114;BME280;64845;53.086;5.834;2023-04-22T12:27:24;100617.75;;;17.51;64.39
76114;BME280;64845;53.086;5.834;2023-04-22T12:29:51;100617.63;;;17.53;64.20
76114;BME280;64845;53.086;5.834;2023-04-22T12:32:18;100612.44;;;17.50;64.20
76114;BME280;64845;53.086;5.834;2023-04-22T12:34:43;100604.88;;;17.42;63.83
76114;BME280;64845;53.086;5.834;2023-04-22T12:37:09;100600.78;;;17.36;63.95
76114;BME280;64845;53.086;5.834;2023-04-22T12:39:35;100602.19;;;17.29;63.81
76114;BME280;64845;53.086;5.834;2023-04-22T12:42:02;100601.56;;;17.26;63.81
76114;BME280;64845;53.086;5.834;2023-04-22T12:44:30;100591.53;;;17.28;64.21
76114;BME280;64845;53.086;5.834;2023-04-22T12:46:55;100601.44;;;17.27;64.38
76114;BME280;64845;53.086;5.834;2023-04-22T12:49:21;100613.66;;;17.20;64.50
76114;BME280;64845;53.086;5.834;2023-04-22T12:51:46;100608.69;;;17.14;64.78
76114;BME280;64845;53.086;5.834;2023-04-22T12:54:11;100609.22;;;17.06;65.04
76114;BME280;64845;53.086;5.834;2023-04-22T12:56:37;100608.81;;;16.99;65.33
76114;BME280;64845;53.086;5.834;2023-04-22T12:59:02;100608.22;;;16.94;65.46
76114;BME280;64845;53.086;5.834;2023-04-22T13:01:28;100599.91;;;16.84;65.36